Terminal Aerodrome Forecast
Issued by NWS Indianapolis, IN

Home | Current Version | Previous Version | Text Only | Print | Product List | Glossary On
Versions: 1 2 3 4 5 6 7 8 9 10 11 12 13 14 15 16 17 18 19 20 21 22 23 24 25 26
000
FTUS43 KIND 220824 AAB
TAFIND
TAF AMD
KIND 220824Z 2208/2312 18005KT 5SM BR OVC030
     FM221300 20004KT 3SM BR BKN008
     FM221400 21004KT 1SM BR BKN003
     FM221500 21005KT P6SM BKN003
     FM221600 21006KT P6SM BKN008
     FM222100 21010KT P6SM BKN050
     FM230900 22008KT P6SM BKN008
     FM231000 23007KT P6SM BKN008=

USA.gov is the U.S. government's official web portal to all federal, state and local government web resources and services.